CheckWX is a tool to help pilots better visualize weather data.  It is not intended as a substitute for an official pre-flight weather briefing.

20:39:03 UTC

GVNP METAR
Praia International Airport
Praia, Cape Verde
Current

39 mins ago

GVNP 262000Z 03015KT CAVOK 23/17 Q1015 NOSIG
Observed
Jan-26 @ 20:00 UTC
Wind
  • 030° at 15 KTS
Visibility
10,000+ meters
Flight Rules
VFR
Cloud Levels
  • Clear skies
Temperature
23°C / 73°F
Dewpoint
17°C / 63°F
Humidity
69%
Altimeter
29.97" Hg
Pressure
1014.92 hPa
Previous

2 hours ago

GVNP 261900Z 03017KT CAVOK 25/17 Q1015 NOSIG
Observed
Jan-26 @ 19:00 UTC
Wind
  • 030° at 17 KTS
Visibility
10,000+ meters
Flight Rules
VFR
Cloud Levels
  • Clear skies
Temperature
25°C / 77°F
Dewpoint
17°C / 63°F
Humidity
61%
Altimeter
29.97" Hg
Pressure
1014.92 hPa
Previous

3 hours ago

GVNP 261800Z 03018KT CAVOK 26/167 Q1015 NOSIG
Observed
Jan-26 @ 18:00 UTC
Wind
  • 030° at 18 KTS
Visibility
10,000+ meters
Flight Rules
VFR
Cloud Levels
  • Clear skies
Altimeter
29.97" Hg
Pressure
1014.92 hPa